• Join FlightAware (Why Join?)
  • Login
  • US Flag 
08:48AM EST


 

Airport Tracker/Info


-or-


 

Live Flight TrackerFlight Track Log ✈ N34996 ✈ 06-May-2013 ✈ KDAL - KLBX

Flight Track Log - Related Links

Times and Time Zones

All times are in EDT time to prevent confusion due to time zone crossing. See the N34996 flight status page for this flight to view local times or setup timezone preferences in your user account.

Time Position Orientation Groundspeed Altitude Reporting Facility
EDT Latitude Longitude Course Direction KTS MPH feet Rate Location/Type
09:02PM 32.8667 -96.8500 239° Southwest 75 86 1,000  Level Dallas / Fort Worth TRACON
09:03PM 32.8500 -96.8833 239° Southwest 83 96 1,900 540 Climbing Dallas / Fort Worth TRACON
09:04PM 32.8167 -96.8667 157° South 86 99 2,400 240 Climbing Dallas / Fort Worth TRACON
09:06PM 32.7836 -96.9045 224° Southwest  Level FlightAware Approximate
09:08PM 32.7000 -96.8833 203° Southwest 126 145 3,100  Level Dallas / Fort Worth TRACON
09:09PM 32.6667 -96.8667 157° South 128 147 3,100 180 Level Dallas / Fort Worth TRACON
09:10PM 32.6333 -96.8500 157° South 114 131 3,600 300 Climbing Dallas / Fort Worth TRACON
09:12PM 32.5920 -96.8599 191° South  Level FlightAware Approximate
09:12PM 32.5833 -96.8333 191° South 125 144 4,100  Level Dallas / Fort Worth TRACON
09:13PM 32.5376 -96.8041 172° South  Level Estimated
09:13PM 32.5500 -96.8167 157° South 126 145 4,100  Level Dallas / Fort Worth TRACON
09:14PM 32.5035 -96.8215 203° Southwest  Level FlightAware Approximate
09:14PM 32.5167 -96.8000 157° South 128 147 4,100  Level Dallas / Fort Worth TRACON
09:15PM 32.4833 -96.7833 157° South 130 150 4,100 60 Level Dallas / Fort Worth TRACON
09:17PM 32.4440 -96.8129 212° Southwest  Level FlightAware Approximate
09:24PM 32.2101 -96.9207 172° South  Level FlightAware Approximate
09:25PM 32.1727 -96.9143 172° South  Level FlightAware Approximate
09:26PM 32.1354 -96.9079 172° South  Level FlightAware Approximate
09:27PM 32.0980 -96.9014 172° South  Level FlightAware Approximate
09:28PM 32.0607 -96.8950 172° South  Level FlightAware Approximate
09:29PM 32.0233 -96.8886 172° South  Level FlightAware Approximate
09:30PM 31.9860 -96.8822 172° South  Level FlightAware Approximate
09:31PM 31.9487 -96.8758 172° South  Level FlightAware Approximate
09:32PM 31.9113 -96.8694 172° South  Level FlightAware Approximate
09:33PM 31.8739 -96.8630 172° South  Level FlightAware Approximate
09:34PM 31.8366 -96.8566 172° South  Level FlightAware Approximate
09:35PM 31.7992 -96.8503 172° South  Level FlightAware Approximate
09:36PM 31.7619 -96.8439 172° South  Level FlightAware Approximate
09:37PM 31.7246 -96.8375 172° South  Level FlightAware Approximate
09:38PM 31.6877 -96.8288 163° South  Level FlightAware Approximate
09:39PM 31.6516 -96.8155 163° South  Level FlightAware Approximate
09:40PM 31.6156 -96.8023 163° South  Level FlightAware Approximate
09:41PM 31.5796 -96.7890 163° South  Level FlightAware Approximate
09:41PM 31.6156 -96.6358 163° South 133 153 7,100  Level Houston Center
09:42PM 31.5436 -96.7758 163° South  Level FlightAware Approximate
09:43PM 31.5076 -96.7625 163° South  Level FlightAware Approximate
09:43PM 31.5311 -96.6175 170° South 142 163 7,100  Level Houston Center
09:44PM 31.4715 -96.7493 163° South  Level FlightAware Approximate
09:45PM 31.4355 -96.7361 163° South  Level FlightAware Approximate
09:45PM 31.4553 -96.6011 170° South 138 159 7,100  Level Houston Center
09:46PM 31.3995 -96.7229 163° South  Level FlightAware Approximate
09:46PM 31.4183 -96.5942 171° South 135 155 7,100  Level Houston Center
09:47PM 31.3797 -96.5844 168° South 138 159 7,100  Level Houston Center
09:49PM 31.3239 -96.6048 197° South  Level FlightAware Approximate
09:49PM 31.3044 -96.5697 197° South 137 158 7,100  Level Houston Center
09:50PM 31.2664 -96.5614 169° South 138 159 7,100  Level Houston Center
09:51PM 31.2289 -96.5558 173° South 135 155 7,100  Level Houston Center
09:52PM 31.1883 -96.5456 168° South 136 157 7,100 -60 Level Houston Center
09:53PM 31.1494 -96.5328 164° South 135 155 7,000  Descending Houston Center
09:54PM 31.1150 -96.5219 165° South 138 159 7,100  Climbing Houston Center
09:56PM 31.0616 -96.5248 183° South  Level FlightAware Approximate
09:56PM 31.0442 -96.5006 183° South 133 153 7,100  Level Houston Center
09:57PM 31.0072 -96.4875 163° South 129 148 7,000  Descending Houston Center
09:58PM 30.9708 -96.4769 166° South 133 153 7,100  Climbing Houston Center
09:59PM 30.9383 -96.4658 164° South 132 152 7,100  Level Houston Center
10:00PM 30.9042 -96.4575 168° South 133 153 7,100  Level Houston Center
10:01PM 30.8656 -96.4447 164° South 133 153 7,100 -60 Level Houston Center
10:02PM 30.8278 -96.4319 164° South 135 155 7,000 -60 Descending Houston Center
10:03PM 30.7944 -96.4236 168° South 130 150 7,000  Level Houston Center
10:05PM 30.7467 -96.4219 178° South  Level FlightAware Approximate
10:05PM 30.7211 -96.4000 178° South 129 148 7,000  Level Houston Center
10:06PM 30.6867 -96.3892 165° South 129 148 7,100  Climbing Houston Center
10:07PM 30.6503 -96.3789 166° South 128 147 7,000  Descending Houston Center
10:08PM 30.6178 -96.3678 164° South 127 146 7,100  Climbing Houston Center
10:10PM 30.5782 -96.3437 161° South  Level Estimated
10:10PM 30.5447 -96.3469 161° South 129 148 7,100  Level Houston Center
10:11PM 30.5103 -96.3361 165° South 127 146 7,000 -60 Descending Houston Center
10:12PM 30.4789 -96.3242 162° South 127 146 7,000  Level Houston Center
10:13PM 30.4436 -96.3144 167° South 127 146 7,000  Level Houston Center
10:14PM 30.4092 -96.3039 165° South 125 144 7,000  Level Houston Center
10:15PM 30.3725 -96.2933 166° South 127 146 7,000  Level Houston Center
10:16PM 30.3358 -96.2806 163° South 124 143 7,000  Level Houston Center
10:17PM 30.3014 -96.2722 168° South 123 142 7,100  Climbing Houston Center
10:18PM 30.2669 -96.2617 165° South 123 142 7,100 -60 Level Houston Center
10:19PM 30.2325 -96.2511 165° South 125 144 7,000 -60 Descending Houston Center
10:21PM 30.2003 -96.2394 163° South 124 143 7,000  Level Houston Center
10:22PM 30.1681 -96.2317 168° South 122 140 7,100  Climbing Houston Center
10:23PM 30.1336 -96.2211 165° South 121 139 7,000  Descending Houston Center
10:24PM 30.1033 -96.2100 162° South 120 138 7,100  Climbing Houston Center
10:25PM 30.0667 -96.1997 166° South 120 138 7,100  Level Houston Center
10:26PM 30.0344 -96.1911 167° South 121 139 7,100  Level Houston Center
10:27PM 30.0022 -96.1803 164° South 121 139 7,100  Level Houston Center
10:28PM 29.9706 -96.1706 165° South 123 142 7,100 -60 Level Houston Center
10:29PM 29.9353 -96.1589 164° South 120 138 7,000 -300 Descending Houston Center
10:30PM 29.9028 -96.1481 164° South 124 143 6,600 -480 Descending Houston Center
10:31PM 29.8683 -96.1361 163° South 134 154 6,100 -600 Descending Houston Center
10:32PM 29.8342 -96.1053 142° Southeast 141 162 5,500 -660 Descending Houston Center
10:33PM 29.8042 -96.0750 139° Southeast 150 173 4,900 -600 Descending Houston Center
10:34PM 29.7769 -96.0450 136° Southeast 147 169 4,300 -660 Descending Houston Center
10:35PM 29.7414 -96.0072 137° Southeast 145 167 3,600 -660 Descending Houston Center
10:36PM 29.7142 -95.9794 138° Southeast 136 157 3,100 -360 Descending Houston Center
10:37PM 29.6908 -95.9533 136° Southeast 124 143 3,000 -60 Descending Houston Center
10:38PM 29.6653 -95.9250 136° Southeast 118 136 3,000  Level Houston Center
10:40PM 29.6140 -95.8825 144° Southeast  Level FlightAware Approximate
10:41PM 29.5914 -95.8494 144° Southeast 121 139 3,000  Level Houston Center
10:42PM 29.5681 -95.8233 136° Southeast 114 131 3,000  Level Houston Center
10:43PM 29.5431 -95.7997 141° Southeast 128 147 3,000  Level Houston Center
10:43PM 29.5400 -95.7956 130° Southeast 119 137 3,000  Level Houston Center
10:44PM 29.5156 -95.7706 138° Southeast 120 138 3,000  Level Houston Center
10:45PM 29.4942 -95.7478 137° Southeast 121 139 3,100  Climbing Houston Center
10:45PM 29.4911 -95.7450 142° Southeast 119 137 3,000 -120 Descending Houston Center
10:46PM 29.4664 -95.7175 136° Southeast 124 143 3,000  Level Houston Center
10:47PM 29.4456 -95.6958 138° Southeast 121 139 3,000  Level Houston Center
10:47PM 29.4428 -95.6931 139° Southeast 120 138 3,000  Level Houston Center
10:48PM 29.4178 -95.6678 139° Southeast 116 133 3,000  Level Houston Center
10:49PM 29.3944 -95.6419 136° Southeast 116 133 3,000  Level Houston Center
10:50PM 29.3647 -95.6125 139° Southeast 118 136 3,000  Level Houston Center
10:51PM 29.3514 -95.5822 117° Southeast 125 144 3,000  Level Houston Center
10:52PM 29.3381 -95.5503 116° Southeast 116 133 3,000  Level Houston Center
10:53PM 29.3222 -95.5161 118° Southeast 111 128 3,000  Level Houston Center